createdAt,value
2019-03-18T00:00:54.685Z,45.83
2019-03-18T00:03:22.808Z,38.38
2019-03-18T00:05:50.582Z,39.73
2019-03-18T00:08:18.523Z,32.15
2019-03-18T00:10:47.595Z,28.70
2019-03-18T00:13:16.571Z,28.20
2019-03-18T00:15:45.769Z,33.08
2019-03-18T00:18:13.670Z,30.27
2019-03-18T00:20:41.549Z,32.00
2019-03-18T00:23:09.326Z,40.85
2019-03-18T00:25:37.295Z,46.25
2019-03-18T00:28:05.094Z,42.00
2019-03-18T00:30:32.999Z,49.77
2019-03-18T00:33:03.125Z,46.15
2019-03-18T00:35:30.836Z,41.73
2019-03-18T00:37:59.040Z,45.90
2019-03-18T00:40:27.267Z,45.67
2019-03-18T00:42:56.770Z,49.30
2019-03-18T00:45:24.744Z,56.37
2019-03-18T00:47:52.608Z,50.40
2019-03-18T00:50:20.390Z,47.15
2019-03-18T00:52:48.711Z,48.87
2019-03-18T00:55:16.564Z,42.48
2019-03-18T00:57:44.544Z,47.35
2019-03-18T01:00:12.512Z,51.05
2019-03-18T01:02:40.618Z,51.92
2019-03-18T01:05:10.616Z,56.60
2019-03-18T01:07:40.696Z,49.93
2019-03-18T01:10:09.824Z,44.65
2019-03-18T01:12:38.311Z,55.88
2019-03-18T01:15:08.321Z,47.90
2019-03-18T01:17:36.501Z,45.78
2019-03-18T01:20:04.682Z,47.85
2019-03-18T01:22:34.989Z,52.30
2019-03-18T01:25:03.190Z,58.70
2019-03-18T01:27:31.562Z,51.23
2019-03-18T01:30:00.665Z,55.48
2019-03-18T01:32:30.561Z,56.75
2019-03-18T01:34:58.458Z,47.95
2019-03-18T01:37:36.972Z,55.63
2019-03-18T01:40:06.245Z,43.55
2019-03-18T01:42:34.314Z,45.50
2019-03-18T01:45:05.854Z,44.20
2019-03-18T01:47:33.763Z,49.53
2019-03-18T01:50:01.607Z,47.45
2019-03-18T01:52:31.696Z,41.58
2019-03-18T01:54:59.854Z,35.28
2019-03-18T01:57:27.597Z,42.15
2019-03-18T01:59:55.565Z,41.58
2019-03-18T02:02:23.321Z,47.45
2019-03-18T02:04:51.309Z,41.63
2019-03-18T02:07:19.669Z,38.40
2019-03-18T02:09:47.414Z,36.55
2019-03-18T02:12:15.359Z,39.58
2019-03-18T02:14:43.179Z,33.58
2019-03-18T02:17:10.965Z,33.20
2019-03-18T02:19:38.889Z,36.35
2019-03-18T02:22:06.762Z,38.33
2019-03-18T02:24:34.607Z,40.08
2019-03-18T02:27:02.429Z,35.13
2019-03-18T02:29:30.360Z,36.77
2019-03-18T02:31:58.154Z,35.30
2019-03-18T02:34:26.602Z,43.45
2019-03-18T02:36:54.828Z,40.45
2019-03-18T02:39:22.685Z,42.45
2019-03-18T02:41:50.388Z,55.08
2019-03-18T02:44:18.462Z,41.37
2019-03-18T02:46:46.190Z,31.48
2019-03-18T02:49:14.509Z,30.82
2019-03-18T02:51:45.574Z,31.10
2019-03-18T02:54:13.499Z,32.67
2019-03-18T02:56:41.373Z,34.08
2019-03-18T02:59:09.244Z,25.40
2019-03-18T03:01:37.048Z,27.80
2019-03-18T03:04:05.005Z,25.97
2019-03-18T03:06:34.017Z,24.82
2019-03-18T03:09:01.743Z,26.35
2019-03-18T03:11:34.604Z,30.43
2019-03-18T03:14:03.018Z,27.32
2019-03-18T03:16:33.545Z,32.73
2019-03-18T03:19:02.134Z,34.33
2019-03-18T03:21:32.581Z,26.25
2019-03-18T03:24:00.595Z,27.98
2019-03-18T03:26:31.763Z,29.92
2019-03-18T03:28:59.526Z,29.18
2019-03-18T03:31:28.361Z,28.32
2019-03-18T03:33:56.207Z,30.10
2019-03-18T03:36:25.764Z,34.35
2019-03-18T03:38:54.739Z,30.35
2019-03-18T03:41:24.766Z,36.00
2019-03-18T03:43:52.487Z,33.05
2019-03-18T03:46:20.407Z,31.90
2019-03-18T03:48:48.198Z,33.75
2019-03-18T03:51:20.279Z,40.60
2019-03-18T03:53:48.251Z,29.20
2019-03-18T03:56:17.328Z,40.55
2019-03-18T03:58:45.714Z,37.20
2019-03-18T04:01:14.002Z,31.68
2019-03-18T04:03:43.182Z,35.28
2019-03-18T04:06:14.837Z,41.88
2019-03-18T04:08:43.033Z,33.92
2019-03-18T04:11:11.048Z,30.17
2019-03-18T04:13:39.982Z,29.45
2019-03-18T04:16:08.092Z,35.10
2019-03-18T04:18:36.107Z,35.13
2019-03-18T04:21:08.206Z,34.98
2019-03-18T04:23:35.945Z,38.85
2019-03-18T04:26:03.938Z,31.23
2019-03-18T04:28:31.694Z,40.15
2019-03-18T04:30:59.940Z,40.12
2019-03-18T04:33:31.732Z,36.00
2019-03-18T04:35:59.798Z,31.68
2019-03-18T04:38:27.633Z,35.83
2019-03-18T04:40:56.162Z,33.85
2019-03-18T04:43:24.306Z,31.68
2019-03-18T04:45:52.148Z,36.28
2019-03-18T04:48:19.954Z,33.20
2019-03-18T04:50:47.880Z,39.53
2019-03-18T04:53:15.554Z,46.77
2019-03-18T04:55:43.617Z,36.73
2019-03-18T04:58:11.407Z,47.83
2019-03-18T05:00:48.606Z,62.20
2019-03-18T05:03:16.577Z,60.95
2019-03-18T05:05:49.957Z,67.12
2019-03-18T05:08:24.616Z,64.45
2019-03-18T05:10:53.357Z,59.73
2019-03-18T05:13:21.048Z,62.50
2019-03-18T05:15:51.141Z,59.40
2019-03-18T05:18:21.532Z,59.85
2019-03-18T05:20:50.543Z,50.28
2019-03-18T05:23:19.641Z,47.38
2019-03-18T05:25:47.589Z,44.58
2019-03-18T05:28:15.311Z,44.88
2019-03-18T05:30:43.750Z,46.88
2019-03-18T05:33:11.845Z,41.08
2019-03-18T05:35:39.814Z,48.25
2019-03-18T05:38:07.615Z,43.42
2019-03-18T05:40:36.768Z,48.17
2019-03-18T05:43:04.955Z,50.33
2019-03-18T05:45:32.892Z,47.73
2019-03-18T05:48:00.632Z,53.20
2019-03-18T05:50:28.559Z,41.53
2019-03-18T05:52:56.383Z,45.58
2019-03-18T05:55:24.308Z,48.83
2019-03-18T05:57:52.218Z,52.30
2019-03-18T06:00:20.035Z,55.75
2019-03-18T06:02:48.012Z,53.02
2019-03-18T06:05:15.739Z,55.55
2019-03-18T06:07:44.102Z,56.42
2019-03-18T06:10:13.955Z,54.90
2019-03-18T06:12:42.160Z,50.03
2019-03-18T06:15:10.384Z,52.23
2019-03-18T06:17:51.181Z,47.23
2019-03-18T06:20:08.454Z,51.13
2019-03-18T06:22:36.592Z,53.95
2019-03-18T06:25:05.683Z,56.10
2019-03-18T06:27:39.143Z,52.53
2019-03-18T06:30:08.888Z,45.60
2019-03-18T06:32:39.109Z,44.75
2019-03-18T06:35:10.152Z,49.42
2019-03-18T06:37:39.636Z,52.27
2019-03-18T06:40:07.828Z,51.28
2019-03-18T06:42:36.479Z,49.90
2019-03-18T06:45:05.769Z,42.78
2019-03-18T06:47:33.749Z,44.48
2019-03-18T06:50:04.004Z,39.35
2019-03-18T06:52:31.905Z,40.25
2019-03-18T06:55:00.382Z,42.73
2019-03-18T06:57:30.205Z,40.55
2019-03-18T06:59:58.345Z,45.85
2019-03-18T07:02:49.917Z,48.98
2019-03-18T07:05:21.573Z,51.60
2019-03-18T07:07:49.356Z,46.07
2019-03-18T07:10:20.366Z,53.83
2019-03-18T07:12:49.681Z,53.43
2019-03-18T07:15:19.556Z,50.87
2019-03-18T07:17:48.629Z,52.50
2019-03-18T07:20:16.516Z,54.13
2019-03-18T07:22:44.329Z,52.83
2019-03-18T07:25:12.562Z,52.23
2019-03-18T07:27:40.506Z,47.23
2019-03-18T07:30:09.763Z,45.87
2019-03-18T07:32:43.641Z,43.60
2019-03-18T07:35:12.872Z,36.67
2019-03-18T07:37:41.798Z,27.07
2019-03-18T07:40:11.221Z,29.80
2019-03-18T07:42:40.350Z,32.53
2019-03-18T07:45:09.090Z,33.03
2019-03-18T07:47:36.901Z,31.30
2019-03-18T07:50:05.650Z,30.87
2019-03-18T07:52:33.486Z,32.90
2019-03-18T07:55:01.434Z,32.43
2019-03-18T07:57:32.535Z,30.23
2019-03-18T07:59:59.713Z,26.80
2019-03-18T08:02:27.802Z,21.80
2019-03-18T08:04:56.141Z,22.37
2019-03-18T08:07:24.347Z,29.33
2019-03-18T08:09:52.259Z,25.20
2019-03-18T08:12:20.115Z,27.13
2019-03-18T08:14:48.033Z,31.97
2019-03-18T08:17:16.279Z,31.63
2019-03-18T08:19:44.205Z,29.47
2019-03-18T08:22:12.022Z,26.30
2019-03-18T08:24:39.831Z,28.37
2019-03-18T08:27:07.776Z,28.07
2019-03-18T08:29:36.026Z,25.80
2019-03-18T08:32:04.099Z,25.40
2019-03-18T08:34:33.371Z,26.17
2019-03-18T08:37:01.284Z,34.77
2019-03-18T08:39:29.463Z,25.33
2019-03-18T08:41:57.430Z,29.03
2019-03-18T08:44:25.101Z,26.87
2019-03-18T08:46:53.140Z,21.87
2019-03-18T08:49:20.790Z,23.10
2019-03-18T08:51:48.892Z,21.13
2019-03-18T08:54:17.932Z,22.63
2019-03-18T08:56:45.873Z,19.90
2019-03-18T08:59:14.047Z,22.20
2019-03-18T09:01:42.797Z,19.20
2019-03-18T09:04:10.693Z,16.93
2019-03-18T09:06:38.554Z,22.40
2019-03-18T09:09:08.791Z,17.53
2019-03-18T09:11:36.766Z,16.67
2019-03-18T09:14:04.593Z,17.20
2019-03-18T09:16:35.970Z,15.93
2019-03-18T09:19:09.041Z,17.93
2019-03-18T09:21:36.263Z,18.17
2019-03-18T09:24:04.437Z,14.63
2019-03-18T09:26:36.006Z,16.60
2019-03-18T09:29:04.225Z,14.00
2019-03-18T09:31:32.304Z,17.90
2019-03-18T09:34:00.287Z,13.73
2019-03-18T09:36:28.138Z,14.10
2019-03-18T09:38:56.399Z,15.47
2019-03-18T09:41:24.261Z,14.17
2019-03-18T09:43:52.496Z,14.77
2019-03-18T09:46:20.309Z,14.00
2019-03-18T09:48:48.226Z,13.27
2019-03-18T09:51:16.162Z,14.33
2019-03-18T09:53:43.953Z,15.03
2019-03-18T09:56:11.655Z,13.93
2019-03-18T09:58:39.719Z,14.57
2019-03-18T10:01:07.500Z,14.10
2019-03-18T10:03:35.458Z,13.67
2019-03-18T10:06:03.424Z,14.60
2019-03-18T10:08:31.186Z,13.30
2019-03-18T10:10:59.067Z,14.70
2019-03-18T10:13:26.890Z,14.00
2019-03-18T10:15:54.741Z,13.97
2019-03-18T10:18:26.347Z,18.80
2019-03-18T10:20:54.152Z,13.77
2019-03-18T10:23:22.483Z,14.30
2019-03-18T10:25:50.263Z,13.63
2019-03-18T10:28:18.228Z,12.90
2019-03-18T10:30:46.013Z,15.23
2019-03-18T10:33:13.690Z,14.20
2019-03-18T10:35:42.281Z,14.83
2019-03-18T10:38:10.035Z,13.77
2019-03-18T10:40:38.003Z,14.10
2019-03-18T10:43:05.992Z,12.87
2019-03-18T10:45:34.925Z,12.60
2019-03-18T10:48:02.857Z,14.50
2019-03-18T10:50:31.071Z,16.27
2019-03-18T10:52:58.842Z,13.80
2019-03-18T10:55:26.788Z,13.97
2019-03-18T10:57:55.346Z,16.10
2019-03-18T11:00:23.047Z,21.57
2019-03-18T11:02:51.128Z,14.27
2019-03-18T11:05:21.529Z,14.63
2019-03-18T11:07:51.756Z,18.03
2019-03-18T11:10:19.280Z,16.23
2019-03-18T11:12:47.157Z,15.73
2019-03-18T11:15:16.249Z,13.60
2019-03-18T11:17:44.136Z,14.90
2019-03-18T11:20:13.427Z,14.30
2019-03-18T11:22:41.590Z,13.17
2019-03-18T11:25:09.704Z,12.73
2019-03-18T11:27:37.651Z,12.63
2019-03-18T11:30:11.854Z,13.40
2019-03-18T11:32:39.951Z,12.87
2019-03-18T11:35:07.790Z,12.43
2019-03-18T11:37:35.757Z,17.70
2019-03-18T11:40:04.347Z,11.83
2019-03-18T11:42:32.208Z,11.90
2019-03-18T11:45:01.782Z,12.23
2019-03-18T11:47:29.581Z,11.23
2019-03-18T11:50:09.969Z,11.20
2019-03-18T11:52:28.205Z,11.47
2019-03-18T11:54:58.952Z,8.87
2019-03-18T11:57:26.715Z,9.80
2019-03-18T11:59:54.683Z,8.00
2019-03-18T12:02:27.521Z,12.10
2019-03-18T12:04:57.533Z,15.30
2019-03-18T12:07:24.895Z,10.93
2019-03-18T12:09:52.642Z,7.90
2019-03-18T12:12:20.533Z,7.20
2019-03-18T12:14:49.608Z,10.07
2019-03-18T12:17:17.516Z,8.47
2019-03-18T12:19:45.290Z,11.13
2019-03-18T12:22:13.288Z,7.67
2019-03-18T12:24:41.419Z,6.93
2019-03-18T12:27:09.385Z,8.00
2019-03-18T12:29:37.196Z,9.00
2019-03-18T12:32:05.529Z,6.50
2019-03-18T12:34:33.296Z,7.40
2019-03-18T12:37:01.256Z,8.10
2019-03-18T12:39:29.088Z,6.63
2019-03-18T12:41:56.989Z,8.93
2019-03-18T12:44:26.052Z,7.73
2019-03-18T12:46:53.743Z,7.40
2019-03-18T12:49:24.707Z,8.63
2019-03-18T12:51:52.563Z,6.90
2019-03-18T12:54:21.103Z,5.73
2019-03-18T12:56:49.098Z,5.63
2019-03-18T12:59:17.280Z,6.80
2019-03-18T13:01:45.641Z,6.23
2019-03-18T13:04:13.453Z,6.13
2019-03-18T13:06:41.438Z,6.30
2019-03-18T13:09:09.241Z,7.40
2019-03-18T13:11:38.275Z,5.37
2019-03-18T13:14:06.194Z,5.70
2019-03-18T13:16:34.037Z,6.23
2019-03-18T13:19:01.921Z,5.30
2019-03-18T13:21:30.949Z,6.47
2019-03-18T13:23:59.259Z,4.63
2019-03-18T13:26:27.126Z,5.13
2019-03-18T13:28:55.033Z,5.37
2019-03-18T13:31:23.236Z,6.07
2019-03-18T13:33:51.173Z,6.30
2019-03-18T13:36:20.033Z,7.47
2019-03-18T13:38:47.727Z,6.30
2019-03-18T13:41:15.543Z,10.57
2019-03-18T13:43:43.479Z,7.50
2019-03-18T13:46:12.515Z,11.20
2019-03-18T13:48:40.489Z,7.40
2019-03-18T13:51:20.373Z,7.57
2019-03-18T13:53:38.459Z,7.40
2019-03-18T13:56:06.554Z,6.60
2019-03-18T13:58:34.416Z,6.33
2019-03-18T14:01:02.151Z,4.30
2019-03-18T14:03:33.005Z,4.67
2019-03-18T14:06:02.181Z,6.90
2019-03-18T14:08:29.906Z,8.83
2019-03-18T14:10:58.085Z,4.80
2019-03-18T14:13:29.236Z,3.53
2019-03-18T14:16:01.550Z,5.50
2019-03-18T14:18:29.691Z,4.60
2019-03-18T14:20:57.781Z,5.67
2019-03-18T14:23:25.517Z,6.97
2019-03-18T14:25:53.338Z,5.47
2019-03-18T14:28:21.442Z,4.80
2019-03-18T14:30:49.263Z,3.40
2019-03-18T14:33:17.230Z,5.80
2019-03-18T14:35:44.971Z,7.20
2019-03-18T14:38:12.955Z,7.77
2019-03-18T14:40:40.866Z,8.60
2019-03-18T14:43:08.659Z,3.53
2019-03-18T14:45:36.542Z,4.00
2019-03-18T14:48:04.458Z,5.20
2019-03-18T14:50:32.476Z,3.43
2019-03-18T14:53:00.514Z,4.83
2019-03-18T14:55:28.260Z,2.80
2019-03-18T14:57:56.384Z,6.13
2019-03-18T15:00:25.623Z,2.50
2019-03-18T15:02:53.436Z,6.60
2019-03-18T15:05:22.432Z,6.10
2019-03-18T15:07:50.655Z,12.60
2019-03-18T15:10:20.669Z,6.70
2019-03-18T15:12:48.832Z,1.93
2019-03-18T15:15:18.095Z,5.33
2019-03-18T15:17:46.306Z,5.80
2019-03-18T15:20:14.048Z,2.33
2019-03-18T15:22:41.906Z,6.83
2019-03-18T15:25:17.583Z,2.13
2019-03-18T15:27:45.455Z,3.00
2019-03-18T15:30:17.923Z,3.60
2019-03-18T15:32:46.200Z,4.70
2019-03-18T15:35:14.104Z,2.43
2019-03-18T15:37:42.147Z,2.50
2019-03-18T15:40:10.978Z,3.23
2019-03-18T15:42:38.656Z,3.30
2019-03-18T15:45:08.139Z,3.77
2019-03-18T15:47:36.043Z,3.73
2019-03-18T15:50:13.021Z,2.97
2019-03-18T15:52:40.468Z,2.83
2019-03-18T15:55:09.874Z,3.47
2019-03-18T15:57:37.736Z,4.30
2019-03-18T16:00:07.771Z,4.23
2019-03-18T16:02:35.535Z,5.00
2019-03-18T16:05:03.644Z,6.83
2019-03-18T16:07:31.667Z,3.10
2019-03-18T16:10:04.747Z,5.37
2019-03-18T16:12:32.831Z,4.10
2019-03-18T16:15:02.085Z,4.33
2019-03-18T16:17:30.118Z,3.90
2019-03-18T16:19:57.796Z,4.97
2019-03-18T16:22:25.840Z,3.40
2019-03-18T16:24:53.782Z,5.70
2019-03-18T16:27:21.594Z,8.17
2019-03-18T16:29:49.526Z,4.90
2019-03-18T16:32:17.298Z,6.03
2019-03-18T16:34:45.239Z,6.08
2019-03-18T16:37:13.070Z,6.27
2019-03-18T16:39:40.997Z,5.37
2019-03-18T16:42:09.181Z,7.65
2019-03-18T16:44:37.214Z,5.53
2019-03-18T16:47:04.911Z,5.58
2019-03-18T16:49:34.941Z,4.78
2019-03-18T16:52:02.639Z,6.80
2019-03-18T16:54:30.687Z,5.50
2019-03-18T16:56:58.462Z,7.17
2019-03-18T16:59:26.289Z,5.05
2019-03-18T17:01:54.261Z,5.33
2019-03-18T17:04:22.093Z,5.83
2019-03-18T17:06:49.974Z,4.55
2019-03-18T17:09:17.785Z,4.12
2019-03-18T17:11:46.764Z,4.85
2019-03-18T17:14:14.701Z,4.12
2019-03-18T17:16:42.660Z,5.58
2019-03-18T17:19:11.089Z,5.80
2019-03-18T17:21:39.202Z,9.93
2019-03-18T17:24:07.062Z,7.92
2019-03-18T17:26:35.337Z,17.00
2019-03-18T17:29:04.460Z,9.13
2019-03-18T17:31:38.443Z,10.98
2019-03-18T17:34:06.279Z,9.83
2019-03-18T17:36:34.233Z,13.00
2019-03-18T17:39:06.531Z,12.40
2019-03-18T17:41:34.481Z,13.48
2019-03-18T17:44:02.389Z,18.98
2019-03-18T17:46:30.194Z,11.12
2019-03-18T17:48:57.970Z,11.10
2019-03-18T17:51:25.646Z,12.15
2019-03-18T17:53:53.751Z,13.90
2019-03-18T17:56:30.274Z,13.10
2019-03-18T17:58:52.726Z,16.17
2019-03-18T18:01:20.719Z,11.63
2019-03-18T18:03:48.483Z,14.18
2019-03-18T18:06:16.328Z,12.28
2019-03-18T18:08:44.826Z,12.43
2019-03-18T18:11:14.910Z,11.68
2019-03-18T18:13:45.493Z,8.98
2019-03-18T18:16:13.493Z,12.47
2019-03-18T18:18:41.465Z,20.72
2019-03-18T18:21:09.324Z,16.42
2019-03-18T18:23:37.159Z,31.95
2019-03-18T18:26:05.480Z,18.67
2019-03-18T18:28:36.247Z,26.80
2019-03-18T18:31:05.239Z,18.30
2019-03-18T18:33:33.503Z,20.88
2019-03-18T18:36:01.362Z,24.23
2019-03-18T18:38:29.704Z,11.20
2019-03-18T18:40:57.889Z,13.35
2019-03-18T18:43:26.774Z,17.67
2019-03-18T18:45:58.847Z,10.53
2019-03-18T18:48:26.908Z,10.45
2019-03-18T18:50:54.709Z,12.70
2019-03-18T18:53:26.534Z,19.77
2019-03-18T18:55:55.570Z,14.95
2019-03-18T18:58:23.634Z,13.93
2019-03-18T19:00:51.532Z,14.55
2019-03-18T19:03:19.340Z,22.98
2019-03-18T19:05:47.264Z,16.67
2019-03-18T19:08:15.472Z,15.65
2019-03-18T19:10:43.414Z,15.95
2019-03-18T19:13:11.251Z,19.10
2019-03-18T19:15:39.178Z,14.55
2019-03-18T19:18:06.969Z,18.82
2019-03-18T19:20:35.003Z,17.40
2019-03-18T19:23:02.689Z,18.23
2019-03-18T19:25:30.609Z,18.55
2019-03-18T19:27:58.407Z,16.95
2019-03-18T19:30:26.361Z,23.30
2019-03-18T19:32:54.217Z,19.10
2019-03-18T19:35:22.486Z,16.45
2019-03-18T19:37:50.347Z,17.65
2019-03-18T19:40:18.465Z,16.37
2019-03-18T19:42:48.168Z,16.87
2019-03-18T19:45:17.326Z,19.45
2019-03-18T19:47:45.120Z,17.23
2019-03-18T19:50:14.704Z,22.10
2019-03-18T19:52:42.474Z,19.85
2019-03-18T19:55:11.778Z,20.23
2019-03-18T19:57:41.083Z,19.15
2019-03-18T20:00:13.137Z,17.48
2019-03-18T20:02:41.269Z,18.52
2019-03-18T20:05:15.272Z,19.90
2019-03-18T20:07:41.943Z,22.22
2019-03-18T20:10:12.485Z,23.02
2019-03-18T20:12:40.532Z,22.27
2019-03-18T20:15:12.445Z,19.17
2019-03-18T20:17:42.703Z,21.82
2019-03-18T20:20:13.296Z,20.92
2019-03-18T20:22:41.073Z,17.92
2019-03-18T20:25:09.048Z,18.73
2019-03-18T20:27:36.772Z,18.40
2019-03-18T20:30:06.172Z,16.87
2019-03-18T20:32:34.111Z,17.32
2019-03-18T20:35:02.448Z,17.75
2019-03-18T20:37:30.728Z,25.30
2019-03-18T20:40:05.539Z,21.25
2019-03-18T20:42:33.367Z,21.07
2019-03-18T20:45:02.692Z,20.32
2019-03-18T20:47:30.710Z,21.70
2019-03-18T20:49:58.624Z,20.35
2019-03-18T20:52:26.350Z,20.90
2019-03-18T20:54:54.049Z,20.35
2019-03-18T20:57:23.079Z,22.67
2019-03-18T20:59:50.882Z,17.32
2019-03-18T21:02:18.841Z,19.65
2019-03-18T21:04:51.393Z,19.62
2019-03-18T21:07:19.421Z,22.07
2019-03-18T21:09:47.313Z,18.92
2019-03-18T21:12:15.161Z,16.17
2019-03-18T21:14:46.656Z,16.55
2019-03-18T21:17:14.561Z,11.10
2019-03-18T21:19:52.812Z,9.75
2019-03-18T21:22:21.783Z,9.13
2019-03-18T21:24:50.823Z,10.65
2019-03-18T21:27:18.727Z,13.65
2019-03-18T21:29:46.574Z,16.35
2019-03-18T21:32:18.159Z,20.30
2019-03-18T21:34:54.847Z,17.23
2019-03-18T21:37:22.916Z,17.65
2019-03-18T21:39:52.879Z,14.43
2019-03-18T21:42:20.694Z,16.85
2019-03-18T21:44:54.129Z,15.18
2019-03-18T21:47:22.517Z,10.90
2019-03-18T21:49:51.655Z,13.10
2019-03-18T21:52:19.369Z,9.10
2019-03-18T21:54:47.740Z,20.02
2019-03-18T21:57:16.122Z,11.53
2019-03-18T21:59:50.020Z,13.03
2019-03-18T22:02:17.948Z,11.35
2019-03-18T22:04:47.828Z,12.70
2019-03-18T22:07:15.744Z,11.65
2019-03-18T22:09:44.834Z,8.78
2019-03-18T22:12:12.693Z,8.33
2019-03-18T22:14:42.355Z,8.20
2019-03-18T22:17:10.510Z,6.90
2019-03-18T22:19:38.307Z,7.65
2019-03-18T22:22:07.519Z,8.60
2019-03-18T22:24:44.763Z,8.73
2019-03-18T22:27:04.912Z,8.50
2019-03-18T22:29:32.603Z,6.22
2019-03-18T22:32:00.536Z,7.37
2019-03-18T22:34:31.642Z,5.72
2019-03-18T22:37:00.786Z,8.95
2019-03-18T22:39:29.833Z,9.88
2019-03-18T22:41:57.780Z,7.92
2019-03-18T22:44:38.230Z,8.40
2019-03-18T22:47:06.201Z,6.62
2019-03-18T22:49:36.205Z,9.73
2019-03-18T22:52:04.394Z,7.47
2019-03-18T22:54:33.387Z,6.92
2019-03-18T22:57:01.315Z,6.75
2019-03-18T22:59:30.385Z,8.78
2019-03-18T23:01:59.109Z,8.30
2019-03-18T23:04:30.070Z,8.08
2019-03-18T23:06:58.962Z,7.97
2019-03-18T23:09:27.994Z,8.53
2019-03-18T23:11:55.909Z,6.37
2019-03-18T23:14:25.782Z,5.55
2019-03-18T23:16:54.087Z,5.80
2019-03-18T23:19:23.579Z,7.92
2019-03-18T23:21:51.858Z,6.97
2019-03-18T23:24:19.690Z,6.83
2019-03-18T23:26:47.643Z,6.97
2019-03-18T23:29:17.447Z,8.05
2019-03-18T23:31:49.913Z,7.25
2019-03-18T23:34:19.385Z,8.78
2019-03-18T23:36:47.263Z,8.15
2019-03-18T23:39:15.079Z,7.10
2019-03-18T23:41:42.973Z,8.13
2019-03-18T23:44:10.784Z,10.50
2019-03-18T23:46:38.723Z,11.85
2019-03-18T23:49:06.531Z,9.90
2019-03-18T23:51:35.701Z,8.98
2019-03-18T23:54:03.567Z,11.30
2019-03-18T23:56:33.097Z,9.38
2019-03-18T23:59:00.858Z,9.75
